TFS435 KDCA-KMDW
Flight info
| Callsign | TFS435 |
|---|---|
| Flight time | N/A |
| Altitude | 38000 |
| Route | WYNGS5 RAMAY Q72 HACKS J149 FWA PANGG7 |
| Aircraft | A320/M-SDE3FGHIRWY/LB1 |
Departure
| Time | 2026-05-06 23:36 |
|---|---|
| Airport | Ronald Reagan Washington National Airport (KDCA) |
Arrival
| Time | N/A |
|---|---|
| Airport | Chicago Midway International Airport (KMDW) |
| Time | Latitude | Longitude | Altitude | Speed | Heading |
|---|---|---|---|---|---|
| 2026-05-06 23:16 | 38.85169 | -77.04053 | 29 ft | 0 kts | 317° |
| 2026-05-06 23:22 | 38.85156 | -77.04038 | 26 ft | 4 kts | 317° |
| 2026-05-06 23:23 | 38.85139 | -77.04017 | 24 ft | 1 kts | 317° |
| 2026-05-06 23:23 | 38.85125 | -77.03993 | 28 ft | 4 kts | 290° |
| 2026-05-06 23:23 | 38.85116 | -77.03974 | 28 ft | 1 kts | 342° |
| 2026-05-06 23:23 | 38.85115 | -77.03974 | 28 ft | 0 kts | 342° |
| 2026-05-06 23:26 | 38.85137 | -77.03978 | 27 ft | 7 kts | 356° |
| 2026-05-06 23:26 | 38.85184 | -77.03981 | 24 ft | 8 kts | 357° |
| 2026-05-06 23:26 | 38.85217 | -77.03983 | 24 ft | 0 kts | 357° |
| 2026-05-06 23:27 | 38.85224 | -77.03984 | 24 ft | 7 kts | 356° |
| 2026-05-06 23:27 | 38.85318 | -77.03991 | 24 ft | 11 kts | 7° |
| 2026-05-06 23:27 | 38.85375 | -77.03939 | 24 ft | 10 kts | 10° |
| 2026-05-06 23:28 | 38.85445 | -77.03946 | 24 ft | 12 kts | 355° |
| 2026-05-06 23:28 | 38.85527 | -77.03955 | 27 ft | 11 kts | 355° |
| 2026-05-06 23:28 | 38.85593 | -77.03961 | 25 ft | 0 kts | 355° |
| 2026-05-06 23:28 | 38.85598 | -77.03961 | 25 ft | 3 kts | 355° |
| 2026-05-06 23:29 | 38.85603 | -77.03962 | 27 ft | 2 kts | 355° |
| 2026-05-06 23:29 | 38.85649 | -77.03966 | 25 ft | 11 kts | 355° |
| 2026-05-06 23:29 | 38.85738 | -77.03976 | 27 ft | 12 kts | 355° |
| 2026-05-06 23:29 | 38.85821 | -77.03984 | 27 ft | 12 kts | 355° |
| 2026-05-06 23:30 | 38.85904 | -77.03990 | 27 ft | 12 kts | 3° |
| 2026-05-06 23:30 | 38.85984 | -77.03964 | 24 ft | 11 kts | 16° |
| 2026-05-06 23:30 | 38.85999 | -77.03958 | 24 ft | 0 kts | 16° |
| 2026-05-06 23:35 | 38.86004 | -77.03956 | 26 ft | 5 kts | 16° |
| 2026-05-06 23:35 | 38.86086 | -77.03912 | 24 ft | 11 kts | 46° |
| 2026-05-06 23:35 | 38.86087 | -77.03876 | 23 ft | 5 kts | 119° |
| 2026-05-06 23:35 | 38.86053 | -77.03867 | 24 ft | 8 kts | 176° |
| 2026-05-06 23:36 | 38.85812 | -77.03842 | 28 ft | 73 kts | 175° |
| 2026-05-06 23:36 | 38.85077 | -77.03769 | 26 ft | 136 kts | 175° |
| 2026-05-06 23:36 | 38.84033 | -77.03669 | 460 ft | 154 kts | 176° |
| 2026-05-06 23:36 | 38.82956 | -77.03592 | 1178 ft | 155 kts | 182° |
| 2026-05-06 23:37 | 38.81874 | -77.03539 | 1959 ft | 156 kts | 185° |
| 2026-05-06 23:37 | 38.80779 | -77.03511 | 2606 ft | 164 kts | 186° |
| 2026-05-06 23:37 | 38.79561 | -77.03514 | 3007 ft | 186 kts | 186° |
| 2026-05-06 23:37 | 38.78187 | -77.03515 | 3360 ft | 209 kts | 185° |
| 2026-05-06 23:38 | 38.76672 | -77.03519 | 3784 ft | 228 kts | 189° |
| 2026-05-06 23:38 | 38.75163 | -77.04245 | 4269 ft | 242 kts | 225° |
| 2026-05-06 23:38 | 38.74318 | -77.06089 | 4999 ft | 247 kts | 257° |
| 2026-05-06 23:38 | 38.74112 | -77.08274 | 6052 ft | 247 kts | 268° |
| 2026-05-06 23:39 | 38.74116 | -77.10474 | 7141 ft | 247 kts | 270° |
| 2026-05-06 23:39 | 38.74150 | -77.12691 | 8145 ft | 250 kts | 269° |
| 2026-05-06 23:39 | 38.74147 | -77.14937 | 9121 ft | 254 kts | 267° |
| 2026-05-06 23:39 | 38.74097 | -77.17144 | 10045 ft | 257 kts | 266° |
| 2026-05-06 23:40 | 38.74002 | -77.19577 | 10571 ft | 278 kts | 265° |
| 2026-05-06 23:40 | 38.73894 | -77.22152 | 10913 ft | 302 kts | 268° |
| 2026-05-06 23:40 | 38.74156 | -77.24897 | 11461 ft | 318 kts | 281° |
| 2026-05-06 23:40 | 38.74940 | -77.27574 | 12254 ft | 327 kts | 294° |
| 2026-05-06 23:41 | 38.76119 | -77.30100 | 13098 ft | 332 kts | 297° |
| 2026-05-06 23:41 | 38.77335 | -77.32621 | 13919 ft | 334 kts | 297° |
| 2026-05-06 23:41 | 38.78564 | -77.35167 | 14731 ft | 336 kts | 297° |
| 2026-05-06 23:41 | 38.79791 | -77.37712 | 15538 ft | 337 kts | 297° |
| 2026-05-06 23:42 | 38.81025 | -77.40269 | 16334 ft | 337 kts | 297° |
| 2026-05-06 23:42 | 38.82257 | -77.42834 | 16833 ft | 338 kts | 297° |
| 2026-05-06 23:42 | 38.83488 | -77.45401 | 16972 ft | 337 kts | 297° |
| 2026-05-06 23:42 | 38.84723 | -77.47986 | 17006 ft | 336 kts | 297° |
| 2026-05-06 23:43 | 38.85943 | -77.50549 | 17006 ft | 336 kts | 297° |
| 2026-05-06 23:43 | 38.87163 | -77.53107 | 17007 ft | 337 kts | 297° |
| 2026-05-06 23:43 | 38.88384 | -77.55667 | 17007 ft | 336 kts | 297° |
| 2026-05-06 23:43 | 38.89605 | -77.58224 | 17007 ft | 335 kts | 297° |
| 2026-05-06 23:44 | 38.90805 | -77.60739 | 17013 ft | 334 kts | 296° |